Time;durP1;ratioP1;P1;durP2;ratioP2;P2;SDS_P1;SDS_P2;PMS_P1;PMS_P2;Temp;Humidity;BMP_temperature;BMP_pressure;BME280_temperature;BME280_humidity;BME280_pressure;Samples;Min_cycle;Max_cycle;Signal;HPM_P1;HPM_P2
2022/09/21 00:01:19;;;;;;;10.38;5.03;;;;;;;10.59;92.43;100876.83;1658966;85;27464;-80
2022/09/21 00:03:46;;;;;;;9.50;5.22;;;;;;;10.61;92.54;100885.52;1668553;84;25940;-79
2022/09/21 00:06:17;;;;;;;8.13;5.50;;;;;;;10.62;92.54;100887.70;1669269;84;25835;-79
2022/09/21 00:08:45;;;;;;;9.35;5.40;;;;;;;10.62;92.57;100881.00;1653139;85;25942;-79
2022/09/21 00:11:16;;;;;;;9.08;5.03;;;;;;;10.61;92.58;100884.67;1657254;85;26111;-79
2022/09/21 00:13:45;;;;;;;;;;;;;;;10.62;92.68;100882.34;1644197;85;28257;-79
2022/09/21 00:16:11;;;;;;;8.13;5.08;;;;;;;10.61;92.70;100879.31;1665243;85;25939;-79
2022/09/21 00:18:38;;;;;;;11.15;5.20;;;;;;;10.59;92.79;100874.65;1610344;87;25767;-78
2022/09/21 00:21:10;;;;;;;9.23;5.17;;;;;;;10.57;92.77;100880.20;1599835;88;26389;-80
2022/09/21 00:23:37;;;;;;;8.28;4.95;;;;;;;10.57;92.86;100881.53;1651757;85;26487;-81
2022/09/21 00:26:08;;;;;;;9.65;5.20;;;;;;;10.53;92.78;100880.23;1658292;85;27465;-79
2022/09/21 00:28:36;;;;;;;8.60;5.15;;;;;;;10.50;92.97;100875.22;1640737;85;25955;-80
2022/09/21 00:31:11;;;;;;;7.80;5.55;;;;;;;10.50;93.06;100876.56;1659668;85;25755;-80
2022/09/21 00:33:39;;;;;;;9.05;5.47;;;;;;;10.49;93.13;100882.11;1648488;84;25991;-80
2022/09/21 00:36:13;;;;;;;8.48;5.05;;;;;;;10.47;93.22;100879.62;1650055;85;25337;-80
2022/09/21 00:38:40;;;;;;;9.18;5.10;;;;;;;10.46;93.29;100885.13;1645837;85;27451;-81
2022/09/21 00:41:09;;;;;;;7.28;5.10;;;;;;;10.46;93.45;100880.61;1637641;85;26088;-80
2022/09/21 00:43:40;;;;;;;8.15;5.15;;;;;;;10.47;93.55;100883.63;1668099;85;25752;-80
2022/09/21 00:46:25;;;;;;;7.80;5.10;;;;;;;10.47;93.51;100870.74;1640754;85;26382;-80
2022/09/21 00:48:52;;;;;;;11.60;5.95;;;;;;;10.47;93.61;100877.44;1656007;85;25898;-79
2022/09/21 00:51:19;;;;;;;7.70;4.92;;;;;;;10.48;93.67;100879.92;1647422;85;28411;-79
2022/09/21 00:53:50;;;;;;;6.37;4.70;;;;;;;10.48;93.66;100881.27;1658713;85;25948;-80
2022/09/21 00:56:17;;;;;;;8.33;4.72;;;;;;;10.48;93.61;100885.28;1653702;85;25914;-79
2022/09/21 00:58:48;;;;;;;6.40;4.92;;;;;;;10.48;93.69;100889.30;1662472;85;25811;-80
2022/09/21 01:01:17;;;;;;;8.00;4.85;;;;;;;10.48;93.82;100890.64;1648195;85;25739;-80
2022/09/21 01:03:45;;;;;;;7.97;4.67;;;;;;;10.48;93.84;100894.66;1655895;85;27544;-80
2022/09/21 01:06:16;;;;;;;6.62;4.85;;;;;;;10.49;93.87;100891.48;1658356;85;25913;-80
2022/09/21 01:08:44;;;;;;;8.85;5.15;;;;;;;10.47;93.91;100889.48;1608137;86;26420;-79
2022/09/21 01:11:55;;;;;;;8.50;5.80;;;;;;;10.45;93.97;100892.36;1639903;86;25849;-79
2022/09/21 01:14:49;;;;;;;7.28;5.10;;;;;;;10.44;94.01;100889.83;1555208;90;26538;-80
2022/09/21 01:17:56;;;;;;;7.58;5.20;;;;;;;10.41;94.21;100899.08;1567454;89;27474;-79
2022/09/21 01:20:39;;;;;;;7.85;4.75;;;;;;;10.40;94.28;100899.23;1626757;86;25814;-80
2022/09/21 01:23:32;;;;;;;9.93;5.20;;;;;;;10.37;94.47;100897.74;1621720;86;25836;-79
2022/09/21 01:26:27;;;;;;;8.03;5.72;;;;;;;10.35;94.55;100896.28;1621710;86;26356;-80
2022/09/21 01:29:37;;;;;;;8.20;5.17;;;;;;;10.31;94.72;100893.11;1625950;86;25872;-80
2022/09/21 01:32:14;;;;;;;8.83;5.90;;;;;;;10.30;94.88;100895.47;1606146;87;27656;-78
2022/09/21 01:34:55;;;;;;;9.08;5.17;;;;;;;10.29;95.05;100899.64;1578528;89;25872;-79
2022/09/21 01:37:30;;;;;;;9.70;5.58;;;;;;;10.30;95.14;100906.19;1653515;85;33176;-78
2022/09/21 01:40:01;;;;;;;10.65;5.62;;;;;;;10.30;95.23;100904.00;1616743;86;26024;-79
2022/09/21 01:42:29;;;;;;;9.28;5.53;;;;;;;10.29;95.30;100903.66;1612504;87;26632;-78
2022/09/21 01:45:00;;;;;;;9.58;5.90;;;;;;;10.29;95.40;100910.35;1619192;87;28296;-79
2022/09/21 01:47:30;;;;;;;7.83;5.62;;;;;;;10.27;95.42;100911.87;1587727;88;25887;-79
2022/09/21 01:50:00;;;;;;;8.68;5.72;;;;;;;10.26;95.51;100910.23;1651505;85;25936;-79
2022/09/21 01:52:41;;;;;;;9.95;6.15;;;;;;;10.28;95.68;100914.06;1659754;85;25783;-79
2022/09/21 01:55:22;;;;;;;8.40;5.85;;;;;;;10.29;95.76;100916.55;1647262;85;25927;-80
2022/09/21 01:58:03;;;;;;;11.38;6.05;;;;;;;10.29;95.80;100924.58;1656676;85;27530;-80
2022/09/21 02:00:33;;;;;;;8.88;5.58;;;;;;;10.29;95.89;100923.24;1651291;85;25323;-79
2022/09/21 02:03:04;;;;;;;11.63;6.30;;;;;;;10.30;95.99;100920.07;1656326;85;25524;-80
2022/09/21 02:05:31;;;;;;;7.55;5.92;;;;;;;10.29;96.04;100921.91;1630088;87;26555;-80
2022/09/21 02:07:59;;;;;;;7.60;5.80;;;;;;;10.29;96.19;100920.56;1599630;88;26484;-80
2022/09/21 02:10:33;;;;;;;8.18;6.08;;;;;;;10.31;96.20;100927.91;1598973;88;27490;-80
2022/09/21 02:13:05;;;;;;;9.15;6.70;;;;;;;10.31;96.34;100923.90;1631786;85;25800;-81
2022/09/21 02:15:46;;;;;;;9.20;5.72;;;;;;;10.33;96.46;100924.55;1642241;85;25830;-80
2022/09/21 02:18:19;;;;;;;;;;;;;;;10.33;96.46;100931.78;1655389;85;26567;-79
2022/09/21 02:20:54;;;;;;;9.03;6.00;;;;;;;10.32;96.53;100923.40;1626432;85;25766;-79
2022/09/21 02:23:26;;;;;;;9.33;6.42;;;;;;;10.29;96.73;100926.42;1664328;85;28001;-80
2022/09/21 02:26:30;;;;;;;9.43;6.28;;;;;;;10.30;96.87;100928.09;1657867;85;26405;-80
2022/09/21 02:29:02;;;;;;;7.60;5.92;;;;;;;10.32;96.92;100930.09;1647757;85;26559;-80
2022/09/21 02:31:36;;;;;;;9.53;6.42;;;;;;;10.30;96.97;100926.27;1657120;85;27617;-81
2022/09/21 02:34:11;;;;;;;9.75;6.30;;;;;;;10.31;97.08;100927.11;1646866;83;25792;-80
2022/09/21 02:36:43;;;;;;;7.40;5.83;;;;;;;10.34;97.19;100929.41;1654573;85;27541;-79
2022/09/21 02:39:17;;;;;;;11.35;7.50;;;;;;;10.37;97.25;100925.05;1631660;85;25810;-80
2022/09/21 02:42:04;;;;;;;9.93;6.20;;;;;;;10.36;97.18;100932.24;1659100;85;25513;-80
2022/09/21 02:44:39;;;;;;;10.53;6.22;;;;;;;10.35;97.28;100928.41;1654196;85;25939;-79
2022/09/21 02:47:38;;;;;;;8.43;6.25;;;;;;;10.33;97.29;100931.78;1643913;85;25780;-80
2022/09/21 02:50:10;;;;;;;8.35;6.45;;;;;;;10.32;97.39;100936.29;1654451;85;27534;-80
2022/09/21 02:52:40;;;;;;;8.35;6.30;;;;;;;10.32;97.63;100944.33;1651317;85;26450;-80
2022/09/21 02:55:08;;;;;;;9.78;6.03;;;;;;;10.33;97.67;100941.95;1648759;85;25960;-80
2022/09/21 02:57:37;;;;;;;9.20;6.17;;;;;;;10.34;97.79;100940.12;1648090;85;25840;-80
2022/09/21 03:00:05;;;;;;;6.90;5.80;;;;;;;10.32;97.79;100948.34;1648910;85;25875;-80
2022/09/21 03:02:41;;;;;;;11.28;5.97;;;;;;;10.32;97.96;100944.33;1644761;85;27498;-80
2022/09/21 03:05:11;;;;;;;10.03;6.10;;;;;;;10.35;98.06;100941.80;1659376;85;26492;-81
2022/09/21 03:07:38;;;;;;;9.78;6.30;;;;;;;10.35;98.03;100950.64;1654797;85;25348;-79
2022/09/21 03:10:08;;;;;;;8.15;5.92;;;;;;;10.38;98.19;100944.11;1648829;85;26352;-80
2022/09/21 03:12:34;;;;;;;7.55;5.62;;;;;;;10.40;98.12;100945.61;1653938;85;25790;-80
2022/09/21 03:15:01;;;;;;;7.00;5.92;;;;;;;10.42;98.14;100942.73;1646644;85;27474;-80
2022/09/21 03:17:27;;;;;;;7.00;5.87;;;;;;;10.42;98.16;100946.26;1653291;85;26462;-80
2022/09/21 03:19:53;;;;;;;14.30;6.35;;;;;;;10.42;98.21;100947.59;1655518;85;25754;-80
2022/09/21 03:22:23;;;;;;;9.23;6.30;;;;;;;10.46;98.19;100949.41;1654869;85;26508;-80
2022/09/21 03:24:50;;;;;;;7.92;5.33;;;;;;;10.46;98.21;100947.56;1651483;85;25821;-81
2022/09/21 03:27:20;;;;;;;9.65;6.10;;;;;;;10.46;98.16;100946.23;1643982;84;28295;-80
2022/09/21 03:29:46;;;;;;;9.33;6.37;;;;;;;10.48;98.29;100947.38;1646273;84;25896;-80
2022/09/21 03:32:13;;;;;;;7.55;5.67;;;;;;;10.50;98.29;100940.84;1644407;85;25769;-80
2022/09/21 03:34:40;;;;;;;9.05;5.65;;;;;;;10.54;98.28;100946.16;1646716;84;26543;-79
2022/09/21 03:37:09;;;;;;;13.03;6.40;;;;;;;10.53;98.15;100948.53;1605307;87;25334;-80
2022/09/21 03:39:35;;;;;;;10.30;5.20;;;;;;;10.53;98.09;100952.55;1584909;88;28273;-80
2022/09/21 03:42:03;;;;;;;9.33;5.25;;;;;;;10.52;98.13;100949.53;1622885;86;25358;-79
2022/09/21 03:44:29;;;;;;;11.65;5.60;;;;;;;10.52;98.17;100956.23;1606067;87;25805;-79
2022/09/21 03:46:57;;;;;;;6.80;5.25;;;;;;;10.53;98.23;100954.39;1619902;86;25808;-80
2022/09/21 03:49:23;;;;;;;6.72;5.37;;;;;;;10.51;98.18;100954.58;1609762;87;25953;-80
2022/09/21 03:51:50;;;;;;;8.30;5.40;;;;;;;10.50;98.27;100958.78;1605397;87;27396;-80
2022/09/21 03:54:16;;;;;;;9.35;5.95;;;;;;;10.49;98.34;100957.94;1607343;87;25895;-80
2022/09/21 03:56:42;;;;;;;9.48;5.62;;;;;;;10.50;98.39;100958.25;1587141;88;25791;-80
2022/09/21 03:59:09;;;;;;;7.55;5.70;;;;;;;10.50;98.42;100961.45;1613116;87;25888;-80
2022/09/21 04:01:35;;;;;;;5.55;4.92;;;;;;;10.48;98.43;100961.61;1650562;85;25885;-80
2022/09/21 04:04:02;;;;;;;6.90;4.78;;;;;;;10.47;98.45;100967.16;1620109;86;27624;-81
2022/09/21 04:06:28;;;;;;;6.72;5.60;;;;;;;10.46;98.59;100971.67;1606905;87;25994;-80
2022/09/21 04:08:55;;;;;;;6.42;5.45;;;;;;;10.46;98.68;100970.33;1615503;87;25877;-80
2022/09/21 04:11:21;;;;;;;6.47;4.80;;;;;;;10.48;98.81;100967.47;1614728;87;26717;-80
2022/09/21 04:13:55;;;;;;;8.60;5.25;;;;;;;10.49;98.75;100969.15;1652374;84;25814;-79
2022/09/21 04:16:20;;;;;;;9.10;5.62;;;;;;;10.48;98.84;100977.69;1652533;84;28306;-80
2022/09/21 04:18:49;;;;;;;6.65;5.17;;;;;;;10.50;98.86;100975.66;1652845;84;25790;-80
2022/09/21 04:21:17;;;;;;;9.13;6.03;;;;;;;10.49;98.79;100979.36;1652818;85;25952;-79
2022/09/21 04:23:44;;;;;;;9.73;6.03;;;;;;;10.48;98.90;100976.34;1655060;85;25971;-79
2022/09/21 04:26:21;;;;;;;7.47;5.83;;;;;;;10.49;98.95;100975.84;1649527;85;26093;-79
2022/09/21 04:28:49;;;;;;;9.05;6.15;;;;;;;10.49;98.97;100987.90;1617424;86;28417;-79
2022/09/21 04:31:15;;;;;;;9.30;5.37;;;;;;;10.46;99.04;100986.40;1606193;88;25767;-79
2022/09/21 04:33:41;;;;;;;6.45;5.12;;;;;;;10.45;99.17;100992.78;1602609;87;25892;-78
2022/09/21 04:36:08;;;;;;;12.50;5.92;;;;;;;10.45;99.26;100992.78;1630134;85;25890;-78
2022/09/21 04:38:34;;;;;;;9.13;5.55;;;;;;;10.47;99.30;100992.10;1650630;85;26090;-78
2022/09/21 04:41:02;;;;;;;8.88;5.67;;;;;;;10.46;99.41;100997.11;1616475;87;27475;-78
2022/09/21 04:43:28;;;;;;;11.38;6.03;;;;;;;10.47;99.37;100996.13;1606585;87;25676;-78
2022/09/21 04:45:54;;;;;;;7.78;5.58;;;;;;;10.49;99.49;100997.27;1630236;86;25773;-78
2022/09/21 04:48:21;;;;;;;7.00;5.65;;;;;;;10.49;99.51;101000.80;1613060;87;26418;-79
2022/09/21 04:50:49;;;;;;;9.20;5.75;;;;;;;10.48;99.53;101001.79;1653064;84;26282;-78
2022/09/21 04:53:16;;;;;;;8.13;5.37;;;;;;;10.48;99.56;101009.83;1654337;84;27643;-78
2022/09/21 04:55:45;;;;;;;6.35;5.53;;;;;;;10.50;99.72;101009.67;1649521;85;25906;-79
2022/09/21 04:58:11;;;;;;;8.45;5.47;;;;;;;10.49;99.68;101004.81;1654078;85;26224;-78
2022/09/21 05:00:37;;;;;;;10.35;5.80;;;;;;;10.52;99.76;101007.64;1653124;84;25970;-78
2022/09/21 05:03:04;;;;;;;9.28;5.87;;;;;;;10.53;99.76;101008.80;1652045;84;25834;-78
2022/09/21 05:05:30;;;;;;;6.37;5.58;;;;;;;10.56;99.80;101014.31;1653307;85;28303;-78
2022/09/21 05:07:57;;;;;;;10.00;5.40;;;;;;;10.56;99.83;101011.11;1658432;84;26464;-78
2022/09/21 05:10:24;;;;;;;9.30;5.20;;;;;;;10.59;99.84;101015.28;1649182;84;25841;-78
2022/09/21 05:12:51;;;;;;;7.53;5.15;;;;;;;10.59;99.78;101009.42;1655371;85;25832;-78
2022/09/21 05:15:20;;;;;;;5.95;4.70;;;;;;;10.60;99.71;101017.81;1657372;84;25754;-79
2022/09/21 05:17:47;;;;;;;6.17;4.75;;;;;;;10.60;99.75;101015.63;1650746;85;27546;-78
2022/09/21 05:20:13;;;;;;;7.05;5.12;;;;;;;10.60;99.77;101016.47;1646240;85;25906;-79
2022/09/21 05:22:40;;;;;;;10.50;6.33;;;;;;;10.60;99.84;101019.64;1655843;84;25765;-78
2022/09/21 05:25:08;;;;;;;11.85;5.47;;;;;;;10.63;99.99;101025.97;1649945;84;26566;-79
2022/09/21 05:27:34;;;;;;;8.25;5.92;;;;;;;10.63;99.94;101036.19;1658693;84;25775;-78
2022/09/21 05:30:01;;;;;;;9.85;6.35;;;;;;;10.65;100.00;101028.81;1660945;84;27683;-78
2022/09/21 05:32:39;;;;;;;12.80;6.20;;;;;;;10.67;100.00;101032.67;1662349;84;25893;-79
2022/09/21 05:35:14;;;;;;;7.95;6.45;;;;;;;10.67;100.00;101034.02;1630544;86;25876;-79
2022/09/21 05:38:18;;;;;;;6.62;5.92;;;;;;;10.68;100.00;101031.14;1621116;86;26578;-79
2022/09/21 05:40:49;;;;;;;8.13;6.15;;;;;;;10.71;100.00;101033.98;1588794;88;25766;-80
2022/09/21 05:43:17;;;;;;;7.25;5.53;;;;;;;10.73;100.00;101039.47;1615376;87;27500;-80
2022/09/21 05:45:51;;;;;;;9.10;5.65;;;;;;;10.74;100.00;101040.31;1653959;84;25872;-80
2022/09/21 05:48:26;;;;;;;6.47;5.33;;;;;;;10.75;100.00;101041.49;1644703;85;25813;-80
2022/09/21 05:51:03;;;;;;;7.78;6.10;;;;;;;10.76;100.00;101050.34;1645655;85;25816;-80
2022/09/21 05:54:05;;;;;;;6.30;5.40;;;;;;;10.76;100.00;101045.83;1645717;85;25763;-80
2022/09/21 05:56:54;;;;;;;7.42;5.35;;;;;;;10.78;100.00;101046.98;1658056;85;28257;-80
2022/09/21 05:59:59;;;;;;;5.35;4.78;;;;;;;10.81;100.00;101047.98;1639938;85;25519;-80
2022/09/21 06:02:57;;;;;;;6.50;5.10;;;;;;;10.83;100.00;101049.97;1654340;85;25829;-79
2022/09/21 06:05:24;;;;;;;6.53;5.15;;;;;;;10.85;100.00;101056.83;1651555;85;26921;-80
2022/09/21 06:07:50;;;;;;;7.25;5.60;;;;;;;10.88;100.00;101058.83;1647715;85;26558;-80
2022/09/21 06:10:16;;;;;;;6.97;5.78;;;;;;;10.90;100.00;101060.81;1646117;85;28314;-80
2022/09/21 06:12:43;;;;;;;6.12;5.47;;;;;;;10.94;100.00;101060.79;1648280;84;25691;-80
2022/09/21 06:15:14;;;;;;;7.90;5.33;;;;;;;10.95;100.00;101063.28;1645421;84;25360;-81
2022/09/21 06:17:41;;;;;;;8.13;5.67;;;;;;;10.99;100.00;101064.59;1649556;84;25773;-81
2022/09/21 06:20:08;;;;;;;6.12;5.25;;;;;;;11.01;99.87;101065.28;1650418;84;25589;-80
2022/09/21 06:22:35;;;;;;;6.15;5.08;;;;;;;11.03;99.93;101068.61;1610159;87;28314;-81
2022/09/21 06:25:01;;;;;;;7.97;5.78;;;;;;;11.06;99.90;101068.73;1590389;88;25828;-80
2022/09/21 06:27:29;;;;;;;9.65;6.25;;;;;;;11.09;99.99;101060.34;1610464;87;25881;-80
2022/09/21 06:29:56;;;;;;;9.20;5.42;;;;;;;11.13;100.00;101068.36;1601483;87;25841;-81
2022/09/21 06:32:22;;;;;;;7.17;5.08;;;;;;;11.16;99.94;101070.16;1615666;87;25874;-80
2022/09/21 06:34:49;;;;;;;8.38;5.50;;;;;;;11.21;99.99;101070.47;1622560;86;27485;-81
2022/09/21 06:37:15;;;;;;;13.25;7.47;;;;;;;11.25;99.99;101069.59;1608325;87;25881;-81
2022/09/21 06:39:43;;;;;;;8.45;6.33;;;;;;;11.29;99.89;101066.91;1617074;87;25545;-80
2022/09/21 06:42:09;;;;;;;5.42;4.87;;;;;;;11.31;99.76;101071.05;1612181;87;26568;-81
2022/09/21 06:44:36;;;;;;;7.45;5.28;;;;;;;11.32;99.59;101067.87;1615333;87;25880;-81
2022/09/21 06:47:02;;;;;;;6.40;5.12;;;;;;;11.34;99.57;101069.36;1622883;87;27471;-80
2022/09/21 06:49:29;;;;;;;7.67;4.95;;;;;;;11.37;99.64;101070.36;1646332;86;25604;-81
2022/09/21 06:51:55;;;;;;;6.00;5.20;;;;;;;11.42;99.70;101076.50;1661765;84;25282;-80
2022/09/21 06:54:21;;;;;;;7.08;4.97;;;;;;;11.47;99.87;101076.30;1635414;86;25844;-80
2022/09/21 06:56:47;;;;;;;6.08;5.05;;;;;;;11.52;99.74;101083.31;1656496;85;26156;-81
2022/09/21 06:59:14;;;;;;;8.73;5.00;;;;;;;11.53;99.34;101081.44;1656805;85;27685;-81
2022/09/21 07:01:40;;;;;;;6.95;5.03;;;;;;;11.56;99.31;101077.91;1657107;85;25927;-81
2022/09/21 07:04:08;;;;;;;6.30;4.60;;;;;;;11.60;99.03;101078.36;1635828;87;25869;-81
2022/09/21 07:06:34;;;;;;;9.30;4.55;;;;;;;11.65;99.20;101085.38;1651860;85;26268;-81
2022/09/21 07:09:01;;;;;;;10.13;4.40;;;;;;;11.68;99.16;101087.70;1653143;85;25817;-81
2022/09/21 07:11:28;;;;;;;6.47;4.78;;;;;;;11.73;99.05;101087.16;1656621;85;27494;-81
2022/09/21 07:13:55;;;;;;;6.58;4.33;;;;;;;11.77;99.06;101086.62;1658696;85;26059;-81
2022/09/21 07:16:23;;;;;;;6.62;4.75;;;;;;;11.83;98.96;101087.22;1653506;85;25907;-81
2022/09/21 07:18:49;;;;;;;7.08;4.95;;;;;;;11.89;99.01;101091.05;1648336;85;26017;-81
2022/09/21 07:21:15;;;;;;;8.03;4.62;;;;;;;11.94;98.98;101088.13;1655957;85;25903;-81
2022/09/21 07:23:42;;;;;;;8.95;4.12;;;;;;;12.00;99.02;101097.28;1652768;85;28052;-82
2022/09/21 07:26:13;;;;;;;7.78;4.17;;;;;;;12.01;98.51;101094.44;1676917;85;26457;-81
2022/09/21 07:28:39;;;;;;;5.30;4.28;;;;;;;12.03;98.22;101092.90;1656086;85;25831;-80
2022/09/21 07:31:09;;;;;;;6.35;4.05;;;;;;;12.03;98.03;101098.27;1662730;85;25769;-81
2022/09/21 07:33:37;;;;;;;5.60;3.42;;;;;;;12.07;98.35;101099.06;1660029;84;25942;-80
2022/09/21 07:36:08;;;;;;;6.47;4.22;;;;;;;12.12;98.49;101102.05;1654345;85;28060;-81
2022/09/21 07:38:35;;;;;;;4.42;4.03;;;;;;;12.17;98.10;101107.67;1664221;84;26570;-81
2022/09/21 07:41:02;;;;;;;6.10;4.08;;;;;;;12.16;97.35;101111.39;1652592;84;25831;-81
2022/09/21 07:43:28;;;;;;;3.62;3.30;;;;;;;12.17;97.50;101106.83;1671716;84;25787;-82
2022/09/21 07:45:55;;;;;;;4.50;3.77;;;;;;;12.18;97.04;101113.88;1659481;84;25832;-80
2022/09/21 07:48:22;;;;;;;3.60;3.30;;;;;;;12.15;96.57;101107.53;1667185;84;28453;-81
2022/09/21 07:50:48;;;;;;;5.83;3.65;;;;;;;12.12;96.56;101111.94;1653144;85;25762;-80
2022/09/21 07:53:16;;;;;;;6.03;3.37;;;;;;;12.11;96.34;101108.92;1639304;86;26462;-79
2022/09/21 07:55:43;;;;;;;3.62;3.25;;;;;;;12.12;96.31;101109.26;1616934;87;26340;-81
2022/09/21 08:00:53;;;;;;;6.95;4.12;;;;;;;12.16;96.54;101115.92;1556382;90;27542;-80
2022/09/21 08:03:19;;;;;;;5.67;3.30;;;;;;;12.17;96.44;101109.02;1578886;87;25874;-81
2022/09/21 08:05:46;;;;;;;6.33;3.00;;;;;;;12.16;96.07;101112.73;1629838;86;25892;-80
2022/09/21 08:08:12;;;;;;;7.45;3.20;;;;;;;12.16;96.06;101117.27;1635679;86;26004;-80
2022/09/21 08:10:38;;;;;;;3.62;3.33;;;;;;;12.16;96.06;101107.36;1629414;86;25319;-80
2022/09/21 08:13:05;;;;;;;3.60;3.20;;;;;;;12.18;95.75;101120.09;1635656;86;28497;-80
2022/09/21 08:15:31;;;;;;;3.80;3.08;;;;;;;12.20;95.67;101115.37;1629374;86;26482;-80
2022/09/21 08:17:58;;;;;;;6.08;3.77;;;;;;;12.22;95.44;101113.84;1625394;85;25334;-81
2022/09/21 08:20:24;;;;;;;5.35;2.40;;;;;;;12.25;95.49;101115.63;1619548;87;25771;-80
2022/09/21 08:22:52;;;;;;;6.47;2.95;;;;;;;12.29;95.43;101119.64;1573577;89;25879;-80
2022/09/21 08:25:19;;;;;;;4.30;2.87;;;;;;;12.34;95.52;101119.06;1647361;85;27657;-81
2022/09/21 08:27:47;;;;;;;5.60;2.95;;;;;;;12.39;95.53;101116.16;1634908;85;25337;-81
2022/09/21 08:30:13;;;;;;;4.12;2.70;;;;;;;12.46;95.27;101122.97;1638757;85;26034;-80
2022/09/21 08:32:40;;;;;;;5.00;2.60;;;;;;;12.54;95.45;101126.89;1641284;85;25793;-80
2022/09/21 08:35:08;;;;;;;3.17;2.87;;;;;;;12.61;95.01;101126.48;1642423;85;26725;-80
2022/09/21 08:37:35;;;;;;;5.22;2.80;;;;;;;12.70;94.91;101128.55;1640832;85;27632;-80
2022/09/21 08:40:04;;;;;;;3.17;2.87;;;;;;;12.78;94.55;101128.44;1648065;85;26543;-80
2022/09/21 08:42:42;;;;;;;4.33;2.70;;;;;;;12.88;93.91;101128.47;1645409;85;25902;-80
2022/09/21 08:45:16;;;;;;;5.10;3.15;;;;;;;12.97;93.02;101130.03;1654013;85;25948;-80
2022/09/21 08:47:52;;;;;;;3.35;3.05;;;;;;;13.07;92.88;101122.52;1656479;85;25843;-80
2022/09/21 08:50:34;;;;;;;5.78;3.25;;;;;;;13.24;92.91;101119.06;1648117;85;26064;-80
2022/09/21 08:53:11;;;;;;;4.97;2.90;;;;;;;13.35;91.51;101118.56;1638967;85;25816;-81
2022/09/21 08:55:38;;;;;;;3.20;2.87;;;;;;;13.35;90.58;101121.25;1638406;85;25792;-80
2022/09/21 08:58:24;;;;;;;3.10;2.80;;;;;;;13.30;89.85;101120.98;1643145;85;26639;-80
2022/09/21 09:01:02;;;;;;;4.33;3.72;;;;;;;13.27;89.08;101130.80;1644795;84;25327;-80
2022/09/21 09:03:49;;;;;;;5.70;3.47;;;;;;;13.23;88.77;101128.17;1643938;85;27448;-80
2022/09/21 09:06:35;;;;;;;5.90;3.02;;;;;;;13.24;88.26;101127.14;1658486;85;26342;-80
2022/09/21 09:09:22;;;;;;;3.33;3.02;;;;;;;13.32;88.53;101128.38;1646552;85;26302;-80
2022/09/21 09:12:03;;;;;;;6.05;3.15;;;;;;;13.42;88.95;101116.78;1642697;85;26340;-82
2022/09/21 09:15:01;;;;;;;3.35;3.05;;;;;;;13.59;88.64;101120.03;1608121;86;25849;-81
2022/09/21 09:17:56;;;;;;;4.22;2.45;;;;;;;13.73;87.99;101115.06;1617672;86;27481;-80
2022/09/21 09:20:33;;;;;;;2.17;2.00;;;;;;;13.79;87.07;101125.08;1646632;85;25802;-81
2022/09/21 09:23:15;;;;;;;3.37;2.40;;;;;;;13.82;86.52;101116.59;1647596;85;25856;-82
2022/09/21 09:25:45;;;;;;;5.30;1.92;;;;;;;13.83;86.35;101122.31;1648316;85;25790;-81
2022/09/21 09:28:47;;;;;;;2.87;2.02;;;;;;;13.87;86.91;101115.51;1652201;85;25887;-81
2022/09/21 09:31:35;;;;;;;3.10;1.67;;;;;;;13.87;86.18;101115.00;1652136;85;27480;-81
2022/09/21 09:34:24;;;;;;;2.33;1.45;;;;;;;13.83;85.75;101111.55;1656914;85;26191;-81
2022/09/21 09:36:55;;;;;;;1.75;1.62;;;;;;;13.81;85.35;101114.41;1641685;85;25883;-81
2022/09/21 09:39:23;;;;;;;3.50;1.57;;;;;;;13.77;85.63;101119.06;1642223;85;25842;-81
2022/09/21 09:42:33;;;;;;;4.37;1.55;;;;;;;13.73;85.29;101117.76;1657106;85;25810;-81
2022/09/21 09:45:35;;;;;;;3.85;1.90;;;;;;;13.70;85.06;101110.93;1643448;85;28324;-81
2022/09/21 09:48:52;;;;;;;3.40;2.10;;;;;;;13.83;85.55;101108.85;1638966;85;25894;-83
2022/09/21 09:51:18;;;;;;;1.82;1.72;;;;;;;14.06;86.66;101109.43;1546208;91;26131;-80
2022/09/21 09:53:45;;;;;;;3.65;1.87;;;;;;;14.13;84.09;101098.70;1642097;85;25889;-80
2022/09/21 09:56:13;;;;;;;2.15;1.95;;;;;;;14.07;83.83;101104.34;1662309;85;26512;-80
2022/09/21 09:58:56;;;;;;;2.77;1.80;;;;;;;14.06;83.23;101105.39;1651020;85;27718;-80
2022/09/21 10:01:42;;;;;;;4.78;1.65;;;;;;;14.04;82.91;101111.48;1650148;85;26472;-82
2022/09/21 10:04:12;;;;;;;3.08;1.90;;;;;;;13.99;82.52;101109.05;1658624;85;25313;-82
2022/09/21 10:06:39;;;;;;;3.27;2.10;;;;;;;14.02;82.40;101108.67;1646435;85;32476;-82
2022/09/21 10:09:30;;;;;;;3.27;1.52;;;;;;;14.05;82.37;101105.59;1649246;85;26423;-81
2022/09/21 10:12:04;;;;;;;1.80;1.55;;;;;;;14.08;81.30;101111.41;1657461;85;27492;-81
2022/09/21 10:14:34;;;;;;;2.02;1.30;;;;;;;14.18;81.42;101109.19;1659259;85;25767;-81
2022/09/21 10:17:06;;;;;;;1.87;1.60;;;;;;;14.24;80.94;101108.39;1645293;85;25547;-83
2022/09/21 10:19:33;;;;;;;2.67;1.35;;;;;;;14.30;80.63;101106.81;1643341;85;26015;-81
2022/09/21 10:22:03;;;;;;;3.12;1.42;;;;;;;14.41;80.70;101102.22;1638293;85;26094;-81
2022/09/21 10:24:33;;;;;;;2.77;1.52;;;;;;;14.52;81.08;101110.56;1644629;85;27661;-82
2022/09/21 10:27:15;;;;;;;4.12;1.60;;;;;;;14.60;81.42;101105.02;1665330;85;25847;-82
2022/09/21 10:29:45;;;;;;;3.77;1.32;;;;;;;14.64;80.76;101103.58;1671997;85;25842;-81
2022/09/21 10:32:20;;;;;;;3.22;1.47;;;;;;;14.68;80.68;101113.44;1656820;85;26382;-81
2022/09/21 10:35:09;;;;;;;1.47;1.00;;;;;;;14.71;79.83;101105.47;1656251;84;26422;-81
2022/09/21 10:37:40;;;;;;;2.08;1.10;;;;;;;14.67;79.21;101106.38;1642270;85;28341;-80
2022/09/21 10:40:23;;;;;;;1.47;0.90;;;;;;;14.69;79.20;101112.42;1659310;85;33420;-81
2022/09/21 10:42:58;;;;;;;1.72;1.10;;;;;;;14.66;79.37;101109.61;1650893;85;25350;-81
2022/09/21 10:45:36;;;;;;;1.52;1.30;;;;;;;14.66;79.42;101112.30;1638835;85;26402;-81
2022/09/21 10:48:09;;;;;;;2.05;1.55;;;;;;;14.65;80.11;101112.48;1638900;85;25322;-81
2022/09/21 10:50:45;;;;;;;1.92;1.40;;;;;;;14.65;80.07;101112.48;1663298;85;27579;-81
2022/09/21 10:53:22;;;;;;;5.87;1.40;;;;;;;14.62;79.89;101111.05;1665182;85;26089;-80
2022/09/21 10:56:03;;;;;;;4.80;2.25;;;;;;;14.60;79.83;101111.77;1652330;84;25839;-82
2022/09/21 10:58:31;;;;;;;2.87;1.35;;;;;;;14.63;80.44;101110.50;1611265;87;25800;-81
2022/09/21 11:01:12;;;;;;;1.87;1.40;;;;;;;14.68;80.01;101108.89;1605708;87;25344;-81
2022/09/21 11:03:50;;;;;;;3.08;1.47;;;;;;;14.73;80.21;101106.09;1606062;87;27494;-81
2022/09/21 11:06:30;;;;;;;2.37;1.60;;;;;;;14.76;79.65;101109.72;1604715;87;25857;-80
2022/09/21 11:09:08;;;;;;;2.45;1.50;;;;;;;14.74;79.95;101106.40;1648033;85;25858;-80
2022/09/21 11:12:06;;;;;;;2.52;1.45;;;;;;;14.73;79.80;101110.14;1650174;85;25760;-80
2022/09/21 11:14:47;;;;;;;2.33;1.20;;;;;;;14.70;80.38;101105.98;1612795;87;25971;-80
2022/09/21 11:17:40;;;;;;;1.60;1.35;;;;;;;14.68;80.26;101111.58;1621250;86;28042;-80
2022/09/21 11:20:46;;;;;;;2.52;1.60;;;;;;;14.67;80.23;101112.60;1634691;87;25908;-81
2022/09/21 11:23:21;;;;;;;2.40;1.57;;;;;;;14.61;79.86;101115.27;1625081;85;25593;-82
2022/09/21 11:25:57;;;;;;;4.30;1.62;;;;;;;14.56;80.58;101121.80;1644533;85;25804;-80
2022/09/21 11:28:59;;;;;;;3.12;1.90;;;;;;;14.45;80.87;101127.23;1648592;85;26133;-80
2022/09/21 11:31:37;;;;;;;2.75;1.80;;;;;;;14.25;81.65;101125.40;1654393;85;27452;-81
2022/09/21 11:34:55;;;;;;;3.12;1.67;;;;;;;14.00;82.43;101125.55;1671697;85;26567;-80
2022/09/21 11:37:47;;;;;;;2.08;1.62;;;;;;;13.88;83.42;101126.58;1641711;85;25934;-80
2022/09/21 11:40:28;;;;;;;3.92;1.70;;;;;;;13.84;84.35;101127.50;1662172;85;25876;-81
2022/09/21 11:43:29;;;;;;;2.15;1.92;;;;;;;13.92;85.09;101119.80;1671178;85;26473;-80
2022/09/21 11:46:31;;;;;;;1.55;1.40;;;;;;;14.02;85.76;101120.28;1654709;85;27469;-82
2022/09/21 11:49:18;;;;;;;1.52;1.32;;;;;;;14.17;87.06;101109.40;1654603;85;26488;-82
2022/09/21 11:51:59;;;;;;;1.20;1.10;;;;;;;14.25;85.91;101120.02;1643154;85;25607;-82
2022/09/21 11:54:36;;;;;;;1.37;1.05;;;;;;;14.29;86.48;101111.37;1602422;85;25970;-81
2022/09/21 11:57:27;;;;;;;2.90;1.30;;;;;;;14.37;85.80;101113.09;1593995;88;26628;-81